Time;durP1;ratioP1;P1;durP2;ratioP2;P2;SDS_P1;SDS_P2;PMS_P1;PMS_P2;Temp;Humidity;BMP_temperature;BMP_pressure;BME280_temperature;BME280_humidity;BME280_pressure;Samples;Min_cycle;Max_cycle;Signal;HPM_P1;HPM_P2
2022/07/14 00:00:52;;;;;;;6.82;3.97;;;22.40;99.90;;;;;;5078817;28;20394;-53
2022/07/14 00:03:18;;;;;;;8.00;3.40;;;22.40;99.90;;;;;;5077273;28;20409;-58
2022/07/14 00:05:44;;;;;;;6.22;3.40;;;22.30;99.90;;;;;;5080706;28;20415;-54
2022/07/14 00:08:09;;;;;;;6.85;3.38;;;22.20;99.90;;;;;;5079447;28;20443;-56
2022/07/14 00:10:35;;;;;;;8.10;3.40;;;22.10;99.90;;;;;;5080234;28;20755;-53
2022/07/14 00:13:01;;;;;;;6.90;3.40;;;22.10;99.90;;;;;;5080124;28;20437;-64
2022/07/14 00:15:27;;;;;;;7.63;3.65;;;22.00;99.90;;;;;;5082293;28;20386;-53
2022/07/14 00:17:55;;;;;;;6.13;3.47;;;22.00;99.90;;;;;;5081785;28;20384;-53
2022/07/14 00:20:21;;;;;;;8.52;3.30;;;22.00;99.90;;;;;;5082210;28;20406;-53
2022/07/14 00:22:47;;;;;;;5.60;3.10;;;22.00;99.90;;;;;;5079255;28;20464;-54
2022/07/14 00:25:12;;;;;;;6.30;3.70;;;21.90;99.90;;;;;;5074133;28;20912;-53
2022/07/14 00:27:38;;;;;;;6.03;3.30;;;21.70;99.90;;;;;;5083142;28;20451;-53
2022/07/14 00:30:05;;;;;;;7.00;3.60;;;21.60;99.90;;;;;;5078807;28;20386;-54
2022/07/14 00:32:33;;;;;;;7.10;3.25;;;21.50;99.90;;;;;;5080094;28;20438;-53
2022/07/14 00:34:59;;;;;;;5.80;3.42;;;21.50;99.90;;;;;;5078060;28;20398;-63
2022/07/14 00:37:25;;;;;;;6.00;3.50;;;20.90;99.90;;;;;;5079688;28;20858;-54
2022/07/14 00:39:56;;;;;;;6.80;3.40;;;21.20;99.90;;;;;;5078592;28;20411;-53
2022/07/14 00:42:36;;;;;;;6.00;3.50;;;21.20;99.90;;;;;;5079325;28;20386;-53
2022/07/14 00:45:06;;;;;;;9.10;3.38;;;21.10;99.90;;;;;;5076988;28;20384;-63
2022/07/14 00:47:32;;;;;;;6.60;3.58;;;21.10;99.90;;;;;;5078708;28;20424;-54
2022/07/14 00:49:58;;;;;;;7.13;3.22;;;21.10;99.90;;;;;;5080183;28;20438;-62
2022/07/14 00:52:26;;;;;;;7.10;3.70;;;20.90;99.90;;;;;;5078744;28;20379;-53
2022/07/14 00:54:52;;;;;;;6.10;3.60;;;20.80;99.90;;;;;;5078602;28;20465;-53
2022/07/14 00:57:18;;;;;;;6.07;3.30;;;20.70;99.90;;;;;;5079210;28;20390;-54
2022/07/14 00:59:44;;;;;;;5.80;3.07;;;20.60;99.90;;;;;;5078628;28;20403;-54
2022/07/14 01:02:10;;;;;;;5.60;3.00;;;20.60;99.90;;;;;;5078147;28;20386;-54
2022/07/14 01:04:36;;;;;;;5.88;3.00;;;20.50;99.90;;;;;;5078506;28;20382;-54
2022/07/14 01:07:02;;;;;;;6.87;3.30;;;20.30;99.90;;;;;;5078844;28;20811;-63
2022/07/14 01:09:28;;;;;;;6.30;3.10;;;20.20;99.90;;;;;;5078078;28;20404;-53
2022/07/14 01:11:54;;;;;;;7.35;3.10;;;20.10;99.90;;;;;;5078034;28;20375;-55
2022/07/14 01:14:19;;;;;;;6.20;3.00;;;20.00;99.90;;;;;;5075370;28;20470;-53
2022/07/14 01:16:45;;;;;;;6.80;3.00;;;19.90;99.90;;;;;;5078013;28;20368;-53
2022/07/14 01:19:11;;;;;;;5.75;2.50;;;19.90;99.90;;;;;;5078993;28;20935;-58
2022/07/14 01:21:36;;;;;;;6.15;2.40;;;19.90;99.90;;;;;;5078201;28;20395;-54
2022/07/14 01:24:02;;;;;;;5.50;2.20;;;19.90;99.90;;;;;;5077795;28;20879;-63
2022/07/14 01:26:28;;;;;;;6.80;2.17;;;19.80;99.90;;;;;;5076091;28;20481;-53
2022/07/14 01:28:53;;;;;;;5.90;2.10;;;19.80;99.90;;;;;;5077559;28;20888;-53
2022/07/14 01:31:19;;;;;;;6.30;2.33;;;19.70;99.90;;;;;;5079181;28;20501;-54
2022/07/14 01:33:44;;;;;;;5.50;2.10;;;19.70;99.90;;;;;;5079183;28;20872;-55
2022/07/14 01:36:10;;;;;;;6.35;2.20;;;19.60;99.90;;;;;;5078453;28;20482;-53
2022/07/14 01:38:35;;;;;;;6.20;2.10;;;19.40;99.90;;;;;;5078138;28;20408;-57
2022/07/14 01:41:01;;;;;;;6.95;2.17;;;19.30;99.90;;;;;;5075999;28;20794;-62
2022/07/14 01:43:27;;;;;;;7.30;2.20;;;19.30;99.90;;;;;;5079186;28;20740;-54
2022/07/14 01:45:53;;;;;;;6.00;2.40;;;19.40;99.90;;;;;;5078307;28;20722;-57
2022/07/14 01:48:18;;;;;;;6.00;1.92;;;19.40;99.90;;;;;;5076790;28;20380;-57
2022/07/14 01:50:44;;;;;;;7.20;2.20;;;19.40;99.90;;;;;;5077900;28;20901;-56
2022/07/14 01:53:09;;;;;;;5.95;2.40;;;19.40;99.90;;;;;;5079632;28;20434;-56
2022/07/14 01:55:35;;;;;;;6.00;2.17;;;19.40;99.90;;;;;;5077308;28;20398;-55
2022/07/14 01:58:01;;;;;;;6.23;2.50;;;19.40;99.90;;;;;;5078652;28;20389;-61
2022/07/14 02:00:26;;;;;;;5.77;2.20;;;19.30;99.90;;;;;;5080261;28;20415;-53
2022/07/14 02:02:52;;;;;;;6.70;2.50;;;19.40;99.90;;;;;;5081550;28;20393;-53
2022/07/14 02:05:17;;;;;;;5.90;2.35;;;19.30;99.90;;;;;;5082603;28;20378;-53
2022/07/14 02:07:44;;;;;;;5.90;2.10;;;19.40;99.90;;;;;;5082633;28;20388;-52
2022/07/14 02:12:54;;;;;;;6.23;2.60;;;19.20;99.90;;;;;;5082297;28;20391;-56
2022/07/14 02:15:19;;;;;;;7.20;2.40;;;19.10;99.90;;;;;;5077379;28;20403;-53
2022/07/14 02:17:45;;;;;;;6.20;2.60;;;19.10;99.90;;;;;;5080892;28;20495;-53
2022/07/14 02:20:12;;;;;;;6.60;2.40;;;19.20;99.90;;;;;;5081603;28;20464;-53
2022/07/14 02:22:37;;;;;;;5.70;2.50;;;19.20;99.90;;;;;;5080970;28;20780;-55
2022/07/14 02:25:03;;;;;;;5.63;2.20;;;19.30;99.90;;;;;;5082347;28;20932;-62
2022/07/14 02:27:29;;;;;;;5.70;2.20;;;19.40;99.90;;;;;;5081989;28;20895;-55
2022/07/14 02:29:55;;;;;;;8.20;2.63;;;19.50;99.90;;;;;;5082304;28;20436;-59
2022/07/14 02:32:20;;;;;;;6.13;2.57;;;19.40;99.90;;;;;;5079231;28;20391;-58
2022/07/14 02:34:46;;;;;;;7.10;2.60;;;19.30;99.90;;;;;;5081516;28;20850;-56
2022/07/14 02:37:12;;;;;;;6.93;3.10;;;19.20;99.90;;;;;;5080701;28;20390;-55
2022/07/14 02:39:38;;;;;;;6.60;2.60;;;19.10;99.90;;;;;;5082515;28;20402;-57
2022/07/14 02:42:03;;;;;;;6.70;2.80;;;19.10;99.90;;;;;;5080706;28;20477;-63
2022/07/14 02:44:29;;;;;;;6.40;2.30;;;19.10;99.90;;;;;;5080671;28;20877;-54
2022/07/14 02:46:55;;;;;;;6.70;2.83;;;19.00;99.90;;;;;;5080610;28;20471;-56
2022/07/14 02:49:21;;;;;;;6.30;2.50;;;18.90;99.90;;;;;;5081882;28;20850;-57
2022/07/14 02:51:46;;;;;;;5.95;2.22;;;18.90;99.90;;;;;;5081434;28;20829;-58
2022/07/14 02:54:12;;;;;;;9.20;2.50;;;18.70;99.90;;;;;;5080222;28;20382;-60
2022/07/14 02:56:38;;;;;;;6.10;2.60;;;18.60;99.90;;;;;;5081970;28;20389;-60
2022/07/14 02:59:07;;;;;;;8.02;2.50;;;18.50;99.90;;;;;;5080553;28;20879;-63
2022/07/14 03:01:33;;;;;;;6.50;2.63;;;18.40;99.90;;;;;;5080914;28;20378;-55
2022/07/14 03:03:59;;;;;;;6.35;2.70;;;18.30;99.90;;;;;;5082655;28;20390;-58
2022/07/14 03:06:25;;;;;;;6.30;2.63;;;18.30;99.90;;;;;;5079899;28;21296;-58
2022/07/14 03:08:50;;;;;;;7.25;2.88;;;18.30;99.90;;;;;;5079593;28;20475;-58
2022/07/14 03:11:16;;;;;;;6.23;2.60;;;18.30;99.90;;;;;;5081063;28;20488;-52
2022/07/14 03:13:42;;;;;;;7.00;2.80;;;18.30;99.90;;;;;;5079411;28;20906;-52
2022/07/14 03:16:09;;;;;;;8.02;2.53;;;18.30;99.90;;;;;;5081127;28;20473;-52
2022/07/14 03:18:41;;;;;;;6.53;2.22;;;18.30;99.90;;;;;;5089598;28;20402;-53
2022/07/14 03:21:08;;;;;;;6.90;2.90;;;18.30;99.90;;;;;;5089219;28;20398;-54
2022/07/14 03:23:34;;;;;;;6.45;2.67;;;18.20;99.90;;;;;;5081900;28;20445;-57
2022/07/14 03:26:00;;;;;;;7.80;2.90;;;18.20;99.90;;;;;;5071046;28;20848;-53
2022/07/14 03:28:25;;;;;;;6.75;2.30;;;18.20;99.90;;;;;;5074457;28;20406;-53
2022/07/14 03:30:55;;;;;;;6.40;2.70;;;18.20;99.90;;;;;;5078965;28;20437;-54
2022/07/14 03:33:22;;;;;;;8.98;2.95;;;18.10;99.90;;;;;;5070328;28;20372;-56
2022/07/14 03:35:49;;;;;;;7.15;2.97;;;18.10;99.90;;;;;;5070949;28;20376;-53
2022/07/14 03:38:14;;;;;;;9.55;3.17;;;18.10;99.90;;;;;;5070570;28;21052;-54
2022/07/14 03:40:40;;;;;;;8.30;2.90;;;18.10;99.90;;;;;;5072010;28;20388;-53
2022/07/14 03:43:05;;;;;;;6.70;2.90;;;18.10;99.90;;;;;;5077115;28;20476;-64
2022/07/14 03:45:31;;;;;;;7.07;2.80;;;18.00;99.90;;;;;;5090620;28;20474;-56
2022/07/14 03:47:57;;;;;;;8.48;2.83;;;18.00;99.90;;;;;;5089155;28;20453;-54
2022/07/14 03:50:23;;;;;;;7.20;2.70;;;18.00;99.90;;;;;;5090542;28;20386;-53
2022/07/14 03:52:48;;;;;;;6.73;3.20;;;18.10;99.90;;;;;;5079926;28;20491;-60
2022/07/14 03:55:14;;;;;;;6.80;3.15;;;18.00;99.90;;;;;;5069681;28;20409;-53
2022/07/14 03:57:40;;;;;;;9.20;2.80;;;18.10;99.90;;;;;;5071262;28;20404;-53
2022/07/14 04:00:06;;;;;;;7.50;3.00;;;18.20;99.90;;;;;;5070084;28;20410;-63
2022/07/14 04:02:32;;;;;;;7.85;3.20;;;18.30;99.90;;;;;;5086179;28;20400;-53
2022/07/14 04:04:57;;;;;;;7.37;3.00;;;18.30;99.90;;;;;;5076343;28;20394;-55
2022/07/14 04:07:23;;;;;;;7.75;2.90;;;18.20;99.90;;;;;;5077603;28;20386;-53
2022/07/14 04:09:50;;;;;;;8.00;2.85;;;18.20;99.90;;;;;;5070051;28;20384;-53
2022/07/14 04:12:16;;;;;;;9.05;2.95;;;18.30;99.90;;;;;;5068512;28;20396;-54
2022/07/14 04:14:41;;;;;;;6.53;2.90;;;18.40;99.90;;;;;;5076213;28;20375;-53
2022/07/14 04:17:07;;;;;;;8.65;2.97;;;18.40;99.90;;;;;;5069401;28;20421;-56
2022/07/14 04:19:33;;;;;;;8.82;3.40;;;18.50;99.90;;;;;;5072019;28;20730;-54
2022/07/14 04:22:00;;;;;;;9.90;3.50;;;18.50;99.90;;;;;;5079327;28;20474;-54
2022/07/14 04:24:26;;;;;;;7.93;3.00;;;18.50;99.90;;;;;;5070251;28;20376;-54
2022/07/14 04:26:51;;;;;;;8.03;3.40;;;18.60;1.00;;;;;;5068398;28;20422;-53
2022/07/14 04:29:17;;;;;;;7.70;3.10;;;18.80;99.90;;;;;;5070444;28;20396;-53
2022/07/14 04:31:43;;;;;;;7.53;3.45;;;18.80;99.90;;;;;;5071682;28;20714;-53
2022/07/14 04:34:08;;;;;;;9.50;3.40;;;18.90;99.90;;;;;;5087057;28;20721;-54
2022/07/14 04:36:34;;;;;;;7.57;3.40;;;19.00;99.90;;;;;;5090282;28;20378;-54
2022/07/14 04:39:00;;;;;;;8.73;3.40;;;19.00;1.00;;;;;;5088152;28;20418;-53
2022/07/14 04:41:26;;;;;;;8.27;3.25;;;18.90;1.00;;;;;;5086739;28;20528;-54
2022/07/14 04:43:52;;;;;;;9.55;3.30;;;19.10;99.90;;;;;;5073877;28;20821;-55
2022/07/14 04:46:18;;;;;;;8.37;3.60;;;19.30;99.90;;;;;;5072159;28;20433;-56
2022/07/14 04:54:33;;;;;;;9.85;3.75;;;19.50;99.90;;;;;;5017015;28;20429;-53
2022/07/14 04:57:00;;;;;;;9.43;3.60;;;19.80;99.90;;;;;;5058570;28;20410;-54
2022/07/14 04:59:26;;;;;;;8.27;3.70;;;19.90;99.90;;;;;;5078316;28;20434;-55
2022/07/14 05:01:52;;;;;;;9.40;4.60;;;20.20;99.90;;;;;;5081450;28;20492;-51
2022/07/14 05:04:18;;;;;;;11.23;4.40;;;21.00;99.90;;;;;;5074350;28;20497;-54
2022/07/14 05:06:46;;;;;;;9.15;4.05;;;22.20;99.90;;;;;;5081717;28;20403;-54
2022/07/14 05:09:13;;;;;;;9.00;4.00;;;23.70;99.90;;;;;;5080543;28;20489;-54
2022/07/14 05:11:40;;;;;;;8.20;3.58;;;24.90;99.90;;;;;;5087014;28;20398;-52
2022/07/14 05:14:06;;;;;;;8.20;4.20;;;25.90;99.90;;;;;;5081847;28;20407;-60
2022/07/14 05:16:31;;;;;;;9.73;3.73;;;26.90;99.90;;;;;;5078421;28;20810;-51
2022/07/14 05:18:57;;;;;;;10.07;3.83;;;28.00;99.90;;;;;;5069064;28;20861;-52
2022/07/14 05:21:24;;;;;;;7.53;3.60;;;28.60;99.90;;;;;;5069066;28;21077;-52
2022/07/14 05:23:49;;;;;;;12.85;3.60;;;29.20;99.90;;;;;;5073060;28;20436;-52
2022/07/14 05:26:15;;;;;;;9.48;3.60;;;29.00;99.90;;;;;;5071810;28;20421;-51
2022/07/14 05:28:41;;;;;;;8.90;3.10;;;28.80;99.90;;;;;;5069227;28;20868;-51
2022/07/14 05:31:07;;;;;;;8.52;3.78;;;29.10;99.90;;;;;;5084699;28;20381;-62
2022/07/14 05:33:33;;;;;;;8.40;4.10;;;29.70;99.90;;;;;;5090775;28;20447;-54
2022/07/14 05:35:59;;;;;;;7.75;4.18;;;29.60;99.90;;;;;;5087522;28;20399;-57
2022/07/14 05:38:25;;;;;;;14.57;3.85;;;29.50;99.90;;;;;;5084118;28;20847;-57
2022/07/14 05:40:51;;;;;;;9.07;4.50;;;30.10;99.90;;;;;;5084019;28;20391;-54
2022/07/14 05:43:18;;;;;;;8.88;3.80;;;31.10;99.90;;;;;;5082103;28;20805;-52
2022/07/14 05:45:45;;;;;;;8.68;4.40;;;32.20;99.90;;;;;;5086583;28;20862;-52
2022/07/14 05:48:11;;;;;;;7.90;4.47;;;33.10;99.90;;;;;;5082488;28;20391;-52
2022/07/14 05:50:36;;;;;;;6.95;4.25;;;32.90;99.90;;;;;;5081567;28;20391;-52
2022/07/14 05:53:02;;;;;;;8.43;4.70;;;32.20;99.90;;;;;;5081402;28;20718;-55
2022/07/14 05:55:28;;;;;;;8.15;4.30;;;32.70;99.90;;;;;;5080042;28;21217;-53
2022/07/14 05:57:53;;;;;;;9.30;5.17;;;33.20;99.90;;;;;;5085673;28;20451;-53
2022/07/14 06:00:19;;;;;;;10.40;6.53;;;33.80;99.90;;;;;;5082198;28;20421;-53
2022/07/14 06:02:45;;;;;;;8.93;5.80;;;34.60;99.90;;;;;;5082763;28;20391;-57
2022/07/14 06:05:11;;;;;;;9.38;4.97;;;35.10;99.90;;;;;;5081500;28;20421;-55
2022/07/14 06:07:37;;;;;;;8.75;4.75;;;35.00;99.90;;;;;;5082132;28;20441;-53
2022/07/14 06:10:05;;;;;;;8.60;6.03;;;34.50;99.90;;;;;;5076280;28;20449;-53
2022/07/14 06:12:32;;;;;;;9.38;5.63;;;34.40;99.90;;;;;;5088911;28;20475;-53
2022/07/14 06:14:58;;;;;;;10.25;6.43;;;34.40;99.90;;;;;;5084430;28;20412;-53
2022/07/14 06:17:23;;;;;;;8.60;6.03;;;35.00;99.90;;;;;;5081158;28;20467;-53
2022/07/14 06:19:49;;;;;;;10.60;5.27;;;34.50;99.90;;;;;;5078037;28;20904;-53
2022/07/14 06:22:14;;;;;;;7.20;4.70;;;33.60;99.90;;;;;;5074828;28;20487;-53
2022/07/14 06:24:43;;;;;;;8.75;4.90;;;33.20;99.90;;;;;;5084366;28;20542;-53
2022/07/14 06:27:09;;;;;;;10.85;4.20;;;34.10;99.90;;;;;;5079563;28;20409;-62
2022/07/14 06:29:35;;;;;;;8.30;4.10;;;34.10;99.90;;;;;;5084589;28;20502;-53
2022/07/14 06:32:00;;;;;;;9.47;5.10;;;34.50;99.90;;;;;;5072128;28;20437;-54
2022/07/14 06:34:27;;;;;;;9.77;6.20;;;35.30;99.90;;;;;;5086390;28;20914;-54
2022/07/14 06:36:53;;;;;;;7.88;4.85;;;36.30;99.90;;;;;;5071660;28;20452;-53
2022/07/14 06:39:19;;;;;;;8.80;7.20;;;36.80;99.90;;;;;;5082877;28;20876;-53
2022/07/14 06:41:45;;;;;;;7.80;4.50;;;37.30;99.90;;;;;;5072077;28;20384;-53
2022/07/14 06:44:10;;;;;;;10.10;7.80;;;38.30;99.90;;;;;;5070859;28;20515;-54
2022/07/14 06:46:38;;;;;;;7.90;3.50;;;38.40;99.90;;;;;;5071767;28;20450;-54
2022/07/14 06:49:03;;;;;;;10.48;7.00;;;38.00;99.90;;;;;;5088437;28;20423;-53
2022/07/14 06:51:29;;;;;;;9.43;6.43;;;36.60;99.90;;;;;;5090729;28;20403;-53
2022/07/14 06:53:55;;;;;;;7.80;3.57;;;35.40;99.90;;;;;;5075802;28;20416;-53
2022/07/14 06:56:21;;;;;;;10.40;4.00;;;34.80;99.90;;;;;;5070912;28;20486;-55
2022/07/14 06:58:46;;;;;;;8.93;3.60;;;35.10;99.90;;;;;;5085965;28;20540;-53
2022/07/14 07:01:12;;;;;;;6.80;2.70;;;35.90;99.90;;;;;;5087679;28;20426;-54
2022/07/14 07:03:38;;;;;;;8.50;3.40;;;37.10;99.90;;;;;;5071697;28;20380;-53
2022/07/14 07:08:47;;;;;;;6.80;3.10;;;36.80;99.90;;;;;;5090886;28;20501;-54
2022/07/14 07:11:13;;;;;;;6.40;2.58;;;37.10;99.90;;;;;;5082610;28;20440;-53
2022/07/14 07:13:39;;;;;;;9.32;2.70;;;38.00;99.90;;;;;;5077139;28;20449;-54
2022/07/14 07:16:06;;;;;;;8.40;2.80;;;38.70;99.90;;;;;;5090961;28;20374;-54
2022/07/14 07:18:32;;;;;;;8.73;2.63;;;38.50;99.90;;;;;;5090317;28;20465;-53
2022/07/14 07:20:58;;;;;;;10.37;5.20;;;38.20;99.90;;;;;;5090533;28;20393;-54
2022/07/14 07:23:24;;;;;;;7.97;5.03;;;36.80;99.90;;;;;;5070335;28;20387;-54
2022/07/14 07:25:50;;;;;;;8.30;2.20;;;36.00;99.90;;;;;;5083880;28;20386;-54
2022/07/14 07:28:15;;;;;;;8.80;2.23;;;35.70;99.90;;;;;;5090174;28;20429;-53
2022/07/14 07:30:41;;;;;;;6.78;2.20;;;35.10;99.90;;;;;;5086810;28;20911;-53
2022/07/14 07:33:08;;;;;;;7.27;2.10;;;35.40;99.90;;;;;;5075177;28;20376;-62
2022/07/14 07:35:34;;;;;;;8.30;2.25;;;36.50;99.90;;;;;;5074374;28;20490;-54
2022/07/14 07:37:59;;;;;;;9.50;2.20;;;36.70;99.90;;;;;;5070129;28;20376;-54
2022/07/14 07:40:25;;;;;;;5.82;2.08;;;37.20;99.90;;;;;;5078914;28;20727;-54
2022/07/14 07:42:51;;;;;;;6.43;2.20;;;37.50;99.90;;;;;;5090674;28;20386;-55
2022/07/14 07:45:17;;;;;;;7.32;2.40;;;38.60;99.90;;;;;;5084522;28;20451;-54
2022/07/14 07:47:42;;;;;;;11.38;2.40;;;38.90;99.90;;;;;;5089536;28;20409;-54
2022/07/14 07:50:10;;;;;;;7.33;2.07;;;38.60;99.90;;;;;;5078190;28;20942;-61
2022/07/14 07:52:36;;;;;;;12.93;5.17;;;39.30;99.90;;;;;;5069619;28;20372;-54
2022/07/14 07:55:06;;;;;;;6.70;4.50;;;40.40;99.90;;;;;;5070974;28;20419;-54
2022/07/14 07:57:31;;;;;;;8.38;4.22;;;40.70;99.90;;;;;;5069940;28;20388;-54
2022/07/14 07:59:57;;;;;;;6.55;1.90;;;39.10;99.90;;;;;;5089293;28;20544;-54
2022/07/14 08:02:24;;;;;;;8.13;2.23;;;39.50;99.90;;;;;;5089923;28;20397;-56
2022/07/14 08:04:50;;;;;;;7.60;3.30;;;39.70;99.90;;;;;;5071792;28;20399;-54
2022/07/14 08:07:16;;;;;;;8.00;3.28;;;39.80;99.90;;;;;;5069111;28;20470;-55
2022/07/14 08:09:42;;;;;;;11.13;3.63;;;39.90;99.90;;;;;;5087315;28;20799;-54
2022/07/14 08:12:07;;;;;;;9.00;7.30;;;39.30;99.90;;;;;;5090170;28;20386;-61
2022/07/14 08:14:48;;;;;;;10.63;6.30;;;37.50;99.90;;;;;;5074460;28;20399;-57
2022/07/14 08:17:15;;;;;;;9.40;5.88;;;36.60;99.90;;;;;;5070841;28;20391;-57
2022/07/14 08:19:41;;;;;;;10.15;5.57;;;36.80;99.90;;;;;;5081128;28;20436;-56
2022/07/14 08:22:06;;;;;;;8.40;5.70;;;37.00;99.90;;;;;;5089700;28;20481;-58
2022/07/14 08:24:32;;;;;;;8.60;6.00;;;37.40;99.90;;;;;;5079747;28;20382;-55
2022/07/14 08:26:58;;;;;;;8.90;7.45;;;38.30;99.90;;;;;;5078273;28;20417;-53
2022/07/14 08:29:23;;;;;;;6.90;2.10;;;39.50;99.90;;;;;;5079727;28;20388;-54
2022/07/14 08:31:49;;;;;;;8.53;2.43;;;41.40;99.90;;;;;;5079734;28;20408;-55
2022/07/14 08:34:15;;;;;;;7.53;4.15;;;43.00;99.90;;;;;;5085039;28;20388;-55
2022/07/14 08:36:41;;;;;;;5.83;2.10;;;43.10;99.90;;;;;;5079152;28;20423;-54
2022/07/14 08:39:07;;;;;;;6.20;2.00;;;42.50;99.90;;;;;;5079395;28;20410;-57
2022/07/14 08:41:34;;;;;;;10.25;2.35;;;41.80;99.90;;;;;;5078684;28;20402;-54
2022/07/14 08:44:00;;;;;;;7.82;2.45;;;41.90;99.90;;;;;;5079698;28;20387;-54
2022/07/14 08:46:27;;;;;;;7.15;4.00;;;42.90;99.90;;;;;;5077224;28;20822;-55
2022/07/14 08:48:53;;;;;;;8.23;6.13;;;43.90;99.90;;;;;;5078568;28;20884;-55
2022/07/14 08:51:23;;;;;;;11.60;2.08;;;44.80;99.90;;;;;;5079188;28;20362;-55
2022/07/14 08:53:49;;;;;;;7.07;4.00;;;44.80;99.90;;;;;;5078163;28;20824;-55
2022/07/14 08:56:15;;;;;;;7.40;2.30;;;45.40;99.90;;;;;;5079239;28;20394;-56
2022/07/14 08:58:43;;;;;;;8.55;2.10;;;46.00;99.90;;;;;;5078872;28;20394;-57
2022/07/14 09:01:09;;;;;;;6.07;2.10;;;46.10;99.90;;;;;;5071588;28;20406;-64
2022/07/14 09:03:34;;;;;;;8.70;2.20;;;46.60;99.90;;;;;;5068852;28;20437;-56
2022/07/14 09:06:00;;;;;;;8.03;2.20;;;46.70;99.90;;;;;;5082188;28;20404;-56
2022/07/14 09:08:26;;;;;;;6.10;2.13;;;45.30;99.90;;;;;;5074228;28;20392;-55
2022/07/14 09:10:51;;;;;;;5.90;2.00;;;44.20;99.90;;;;;;5076947;28;20412;-55
2022/07/14 09:13:19;;;;;;;9.65;6.30;;;43.60;99.90;;;;;;5076065;28;20421;-56
2022/07/14 09:15:47;;;;;;;7.03;6.07;;;42.10;99.90;;;;;;5080652;28;20473;-55
2022/07/14 09:18:24;;;;;;;7.80;7.00;;;42.60;99.90;;;;;;5080324;28;20380;-63
2022/07/14 09:20:52;;;;;;;7.60;6.43;;;42.50;99.90;;;;;;5078576;28;20490;-56
2022/07/14 09:23:29;;;;;;;7.72;5.65;;;42.90;99.90;;;;;;5077552;28;20481;-59
2022/07/14 09:26:20;;;;;;;9.40;5.80;;;42.00;99.90;;;;;;5080012;28;20398;-56
2022/07/14 09:28:48;;;;;;;8.10;6.20;;;41.80;99.90;;;;;;5081597;28;20925;-55
2022/07/14 09:31:27;;;;;;;8.02;6.15;;;42.00;99.90;;;;;;5079348;28;20376;-61
2022/07/14 09:34:00;;;;;;;8.20;7.20;;;43.60;99.90;;;;;;5077210;28;20394;-61
2022/07/14 09:36:31;;;;;;;7.85;6.50;;;44.60;99.90;;;;;;5077125;28;20451;-56
2022/07/14 09:39:06;;;;;;;7.90;6.70;;;44.90;99.90;;;;;;5078986;28;20556;-56
2022/07/14 09:41:59;;;;;;;10.40;6.63;;;44.80;99.90;;;;;;5077518;28;20569;-56
2022/07/14 09:44:25;;;;;;;5.60;1.90;;;45.30;99.90;;;;;;5077975;28;20747;-56
2022/07/14 09:46:54;;;;;;;7.40;2.10;;;45.10;99.90;;;;;;5078696;28;20386;-56
2022/07/14 09:49:22;;;;;;;5.50;1.80;;;45.20;99.90;;;;;;5076331;28;20895;-56
2022/07/14 09:52:02;;;;;;;11.60;2.00;;;45.30;99.90;;;;;;5078098;28;20462;-56
2022/07/14 09:54:41;;;;;;;8.17;3.10;;;45.20;99.90;;;;;;5076884;28;20380;-56
2022/07/14 09:57:08;;;;;;;7.82;5.70;;;44.70;99.90;;;;;;5078199;28;20405;-55
2022/07/14 09:59:48;;;;;;;7.65;5.75;;;43.00;99.90;;;;;;5074993;28;20762;-55
2022/07/14 10:02:29;;;;;;;7.50;6.57;;;41.80;99.90;;;;;;5077520;28;20410;-60
2022/07/14 10:05:04;;;;;;;10.35;6.05;;;42.10;99.90;;;;;;5081196;28;20379;-56
2022/07/14 10:07:35;;;;;;;9.95;5.88;;;43.70;99.90;;;;;;5076408;28;20394;-56
2022/07/14 10:10:11;;;;;;;6.40;4.60;;;44.20;99.90;;;;;;5078844;28;20413;-56
2022/07/14 10:12:39;;;;;;;7.68;5.13;;;44.60;99.90;;;;;;5080734;28;20419;-57
2022/07/14 10:15:07;;;;;;;6.80;5.53;;;44.80;99.90;;;;;;5076398;28;20876;-55
2022/07/14 10:17:35;;;;;;;9.65;6.40;;;44.40;99.90;;;;;;5077763;28;20401;-55
2022/07/14 10:20:02;;;;;;;8.88;6.43;;;43.10;99.90;;;;;;5080034;28;20513;-56
2022/07/14 10:22:29;;;;;;;8.70;6.03;;;42.80;99.90;;;;;;5080627;28;20398;-55
2022/07/14 10:24:57;;;;;;;7.80;5.40;;;43.40;99.90;;;;;;5081595;28;20380;-60
2022/07/14 10:27:23;;;;;;;9.50;6.57;;;43.90;99.90;;;;;;5079584;28;20457;-56
2022/07/14 10:29:50;;;;;;;13.30;7.60;;;43.70;99.90;;;;;;5085289;28;20464;-56
2022/07/14 10:32:27;;;;;;;7.90;6.20;;;41.50;99.90;;;;;;5081422;28;20420;-58
2022/07/14 10:35:19;;;;;;;8.52;7.72;;;41.00;99.90;;;;;;5077588;28;20404;-55
2022/07/14 10:38:27;;;;;;;8.68;6.75;;;39.60;99.90;;;;;;5074642;28;20380;-55
2022/07/14 10:40:56;;;;;;;7.60;5.97;;;39.90;99.90;;;;;;5089077;28;20443;-55
2022/07/14 10:43:27;;;;;;;9.00;8.10;;;40.20;99.90;;;;;;5088453;28;20464;-55
2022/07/14 10:45:55;;;;;;;10.40;8.43;;;39.50;99.90;;;;;;5086504;28;20390;-55
2022/07/14 10:48:35;;;;;;;9.23;8.23;;;38.60;99.90;;;;;;5070839;28;20388;-55
2022/07/14 10:51:18;;;;;;;9.23;8.32;;;37.90;99.90;;;;;;5071679;28;20384;-56
2022/07/14 10:54:00;;;;;;;9.02;8.00;;;37.90;99.90;;;;;;5082303;28;20741;-55
2022/07/14 10:56:27;;;;;;;8.80;7.75;;;38.00;99.90;;;;;;5081611;28;20401;-55
2022/07/14 10:59:27;;;;;;;8.85;8.05;;;38.10;99.90;;;;;;5078213;28;20447;-55
2022/07/14 11:02:11;;;;;;;9.67;7.37;;;37.30;99.90;;;;;;5085926;28;20489;-55
2022/07/14 11:05:14;;;;;;;8.80;7.00;;;37.10;99.90;;;;;;5082609;28;20463;-55
2022/07/14 11:07:43;;;;;;;8.80;7.80;;;36.90;99.90;;;;;;5079396;28;20390;-55
2022/07/14 11:10:14;;;;;;;9.60;7.45;;;37.30;99.90;;;;;;5076388;28;20403;-55
2022/07/14 11:13:05;;;;;;;10.27;8.27;;;37.20;99.90;;;;;;5082858;28;20403;-56
2022/07/14 11:15:53;;;;;;;12.35;8.40;;;37.10;99.90;;;;;;5082390;28;20417;-56
2022/07/14 11:18:20;;;;;;;9.35;7.75;;;37.10;99.90;;;;;;5082218;28;20450;-56
2022/07/14 11:20:49;;;;;;;8.60;7.30;;;36.50;99.90;;;;;;5086508;28;20398;-55
2022/07/14 11:23:16;;;;;;;10.27;8.00;;;36.70;99.90;;;;;;5082447;28;20576;-57
2022/07/14 11:25:43;;;;;;;9.27;7.75;;;36.80;99.90;;;;;;5081825;28;20461;-55
2022/07/14 11:28:31;;;;;;;8.40;7.10;;;36.60;99.90;;;;;;5080524;28;20407;-55
2022/07/14 11:31:15;;;;;;;9.13;7.65;;;36.90;99.90;;;;;;5082430;28;20402;-56
2022/07/14 11:36:32;;;;;;;8.60;7.70;;;37.10;99.90;;;;;;5069439;28;20418;-55
2022/07/14 11:39:36;;;;;;;10.70;8.10;;;36.70;99.90;;;;;;5070302;28;20416;-56
2022/07/14 11:42:07;;;;;;;10.87;8.53;;;36.60;99.90;;;;;;5062672;28;20895;-56
2022/07/14 11:44:36;;;;;;;9.10;8.20;;;36.20;99.90;;;;;;5086090;28;20414;-58
2022/07/14 11:47:04;;;;;;;9.47;6.70;;;35.70;99.90;;;;;;5082878;28;20406;-55
2022/07/14 11:49:31;;;;;;;14.10;8.40;;;35.40;99.90;;;;;;5073742;28;20498;-55
2022/07/14 11:51:58;;;;;;;7.85;6.20;;;35.30;99.90;;;;;;5080862;28;20412;-60
2022/07/14 11:54:25;;;;;;;8.30;7.40;;;35.50;99.90;;;;;;5084167;28;20448;-56
2022/07/14 11:57:06;;;;;;;9.27;7.72;;;36.00;99.90;;;;;;5080398;28;20404;-56
2022/07/14 11:59:33;;;;;;;9.30;8.13;;;36.30;99.90;;;;;;5079102;28;20409;-55
2022/07/14 12:02:19;;;;;;;8.38;7.53;;;35.90;99.90;;;;;;5080960;28;21145;-55
2022/07/14 12:04:54;;;;;;;8.57;7.47;;;35.80;99.90;;;;;;5080499;28;21031;-55
2022/07/14 12:07:41;;;;;;;9.38;8.38;;;35.50;99.90;;;;;;5079673;28;20410;-55
2022/07/14 12:10:07;;;;;;;12.20;8.70;;;35.30;99.90;;;;;;5082005;28;20402;-55
2022/07/14 12:12:43;;;;;;;12.23;8.65;;;35.50;99.90;;;;;;5072735;28;20474;-62
2022/07/14 12:15:09;;;;;;;9.02;7.75;;;35.50;99.90;;;;;;5081191;28;20398;-57
2022/07/14 12:17:48;;;;;;;8.40;7.60;;;35.60;99.90;;;;;;5078155;28;20417;-56
2022/07/14 12:20:14;;;;;;;8.50;7.60;;;35.60;99.90;;;;;;5085571;28;20451;-63
2022/07/14 12:22:44;;;;;;;8.55;7.65;;;35.50;99.90;;;;;;5080331;28;20390;-55
2022/07/14 12:25:31;;;;;;;10.27;7.28;;;35.10;99.90;;;;;;5084365;28;20391;-55
2022/07/14 12:28:05;;;;;;;9.38;7.60;;;34.80;99.90;;;;;;5086461;28;20421;-55
2022/07/14 12:30:42;;;;;;;11.13;7.10;;;34.80;99.90;;;;;;5078801;28;20421;-56
2022/07/14 12:33:08;;;;;;;9.65;8.35;;;34.60;99.90;;;;;;5081308;28;20402;-56
2022/07/14 12:35:34;;;;;;;10.68;8.30;;;34.50;99.90;;;;;;5079318;28;20378;-55
2022/07/14 12:38:00;;;;;;;12.30;8.13;;;34.20;99.90;;;;;;5081378;28;20571;-56
2022/07/14 12:40:26;;;;;;;8.65;7.75;;;34.30;99.90;;;;;;5079500;28;20414;-56
2022/07/14 12:42:52;;;;;;;10.57;8.70;;;34.20;99.90;;;;;;5081654;28;20424;-56
2022/07/14 12:45:17;;;;;;;14.53;9.07;;;34.10;99.90;;;;;;5079904;28;20394;-56
2022/07/14 12:47:51;;;;;;;9.70;8.70;;;34.10;99.90;;;;;;5073922;28;20398;-55
2022/07/14 12:50:19;;;;;;;9.82;8.40;;;34.00;99.90;;;;;;5074813;28;20395;-56
2022/07/14 12:52:52;;;;;;;10.55;9.65;;;33.80;99.90;;;;;;5088740;28;20394;-55
2022/07/14 12:55:44;;;;;;;8.45;3.50;;;34.00;99.90;;;;;;5079350;28;20417;-56
2022/07/14 12:58:11;;;;;;;8.13;2.42;;;33.90;99.90;;;;;;5083157;28;20890;-56
2022/07/14 13:00:39;;;;;;;10.32;2.50;;;33.70;99.90;;;;;;5078326;28;20419;-58
2022/07/14 13:03:16;;;;;;;7.25;2.30;;;33.50;99.90;;;;;;5081089;28;20429;-57
2022/07/14 13:05:50;;;;;;;9.40;6.53;;;33.70;99.90;;;;;;5076221;28;20375;-56